Albia, Iowa
Current Conditions -  °F | °C
As of 10:05 PM on Sunday 23 Nov 2014 (Local Time) from KOTM Reporting Station
Light Rain Light Rain  
Wind Chill: -2°   Ceiling: 1200
Heat Index:   Visibility: 9mi
Dew Point:   Wind: 26mph
Humidity: 89%   Direction: 310°NW
Pressure: 29.31"   Gusts: 38mph
Location:  41.03°N, 92.81°W
Report Text: KOTM 240405Z AUTO 31023G33KT 9SM -RA OVC012 04/02 A2931 RMK AO2 PK WND 33035/0355 P0000 T00390022
Loading
Personal Weather Stations






























Interactive Weather Map New forecast layout! Learn more

10-Day Weather Forecast

Advertisements
Track Severe Weather on mobile